createdAt,value
2018-11-26T00:01:37.976Z,17.97
2018-11-26T00:04:05.904Z,17.97
2018-11-26T00:06:33.796Z,17.33
2018-11-26T00:09:01.711Z,17.23
2018-11-26T00:11:31.973Z,16.87
2018-11-26T00:13:59.895Z,17.03
2018-11-26T00:16:27.790Z,17.77
2018-11-26T00:18:55.754Z,17.03
2018-11-26T00:21:23.676Z,16.63
2018-11-26T00:23:51.585Z,17.47
2018-11-26T00:26:19.486Z,17.00
2018-11-26T00:28:47.392Z,16.63
2018-11-26T00:31:15.293Z,17.17
2018-11-26T00:33:43.196Z,17.97
2018-11-26T00:36:11.108Z,18.57
2018-11-26T00:38:39.027Z,17.53
2018-11-26T00:41:06.939Z,17.37
2018-11-26T00:43:34.840Z,17.67
2018-11-26T00:46:02.752Z,17.87
2018-11-26T00:48:30.652Z,17.90
2018-11-26T00:50:58.569Z,17.47
2018-11-26T00:53:26.457Z,18.07
2018-11-26T00:55:54.384Z,17.73
2018-11-26T00:58:22.281Z,17.13
2018-11-26T01:00:50.165Z,18.93
2018-11-26T01:03:18.068Z,17.90
2018-11-26T01:05:45.988Z,17.33
2018-11-26T01:08:13.975Z,16.83
2018-11-26T01:10:41.881Z,16.77
2018-11-26T01:13:09.804Z,17.87
2018-11-26T01:15:37.704Z,17.07
2018-11-26T01:18:06.081Z,17.90
2018-11-26T01:20:34.008Z,18.30
2018-11-26T01:23:01.967Z,16.80
2018-11-26T01:25:29.869Z,17.93
2018-11-26T01:27:57.761Z,17.60
2018-11-26T01:30:25.718Z,18.37
2018-11-26T01:32:53.604Z,17.77
2018-11-26T01:35:21.499Z,17.87
2018-11-26T01:37:49.408Z,18.43
2018-11-26T01:40:20.901Z,18.43
2018-11-26T01:42:48.928Z,16.93
2018-11-26T01:45:16.863Z,17.53
2018-11-26T01:47:44.760Z,17.20
2018-11-26T01:50:12.712Z,17.30
2018-11-26T01:52:40.624Z,17.97
2018-11-26T01:55:09.733Z,17.87
2018-11-26T01:57:37.695Z,17.07
2018-11-26T02:00:13.508Z,17.07
2018-11-26T02:02:42.156Z,18.53
2018-11-26T02:05:10.385Z,18.87
2018-11-26T02:07:38.376Z,17.53
2018-11-26T02:10:08.699Z,16.83
2018-11-26T02:12:36.676Z,17.67
2018-11-26T02:15:05.332Z,17.63
2018-11-26T02:17:33.252Z,17.40
2018-11-26T02:20:01.144Z,17.47
2018-11-26T02:22:29.056Z,17.20
2018-11-26T02:24:56.942Z,18.73
2018-11-26T02:27:24.851Z,18.17
2018-11-26T02:29:52.747Z,16.97
2018-11-26T02:32:20.657Z,17.60
2018-11-26T02:34:48.580Z,18.57
2018-11-26T02:37:16.476Z,17.83
2018-11-26T02:39:44.389Z,17.63
2018-11-26T02:42:12.344Z,17.23
2018-11-26T02:44:40.332Z,18.33
2018-11-26T02:47:08.228Z,16.60
2018-11-26T02:49:36.122Z,17.17
2018-11-26T02:52:04.048Z,17.63
2018-11-26T02:54:31.935Z,17.00
2018-11-26T02:56:59.833Z,18.33
2018-11-26T02:59:27.746Z,17.43
2018-11-26T03:01:55.681Z,17.40
2018-11-26T03:04:23.596Z,17.70
2018-11-26T03:06:51.509Z,17.67
2018-11-26T03:09:19.433Z,17.07
2018-11-26T03:11:47.340Z,17.57
2018-11-26T03:14:15.270Z,17.17
2018-11-26T03:16:43.174Z,18.93
2018-11-26T03:19:11.080Z,18.47
2018-11-26T03:21:38.987Z,17.40
2018-11-26T03:24:06.940Z,17.60
2018-11-26T03:26:35.040Z,17.67
2018-11-26T03:29:02.959Z,18.03
2018-11-26T03:31:30.845Z,17.90
2018-11-26T03:33:58.756Z,17.90
2018-11-26T03:36:26.627Z,18.53
2018-11-26T03:38:55.401Z,19.17
2018-11-26T03:41:23.831Z,19.00
2018-11-26T03:43:51.713Z,18.20
2018-11-26T03:46:19.619Z,18.10
2018-11-26T03:48:47.501Z,19.10
2018-11-26T03:51:15.416Z,19.47
2018-11-26T03:53:43.318Z,19.13
2018-11-26T03:56:11.254Z,19.37
2018-11-26T03:58:39.125Z,19.50
2018-11-26T04:01:07.340Z,18.30
2018-11-26T04:03:35.224Z,19.60
2018-11-26T04:06:03.878Z,18.57
2018-11-26T04:08:31.783Z,19.00
2018-11-26T04:10:59.681Z,19.50
2018-11-26T04:13:27.589Z,18.73
2018-11-26T04:15:55.492Z,18.23
2018-11-26T04:18:23.376Z,19.10
2018-11-26T04:20:51.307Z,20.00
2018-11-26T04:23:19.225Z,20.03
2018-11-26T04:25:47.153Z,20.00
2018-11-26T04:28:15.059Z,19.10
2018-11-26T04:30:42.948Z,18.53
2018-11-26T04:33:10.860Z,19.23
2018-11-26T04:35:38.764Z,20.23
2018-11-26T04:38:06.662Z,18.83
2018-11-26T04:40:34.580Z,18.90
2018-11-26T04:43:02.481Z,20.40
2018-11-26T04:45:30.413Z,19.87
2018-11-26T04:47:58.329Z,19.63
2018-11-26T04:50:26.280Z,18.80
2018-11-26T04:52:54.159Z,17.60
2018-11-26T04:55:22.036Z,18.77
2018-11-26T04:57:49.932Z,18.37
2018-11-26T05:00:17.832Z,19.77
2018-11-26T05:02:45.720Z,18.50
2018-11-26T05:05:13.748Z,19.23
2018-11-26T05:07:41.644Z,18.63
2018-11-26T05:10:10.773Z,20.57
2018-11-26T05:12:38.670Z,18.63
2018-11-26T05:15:08.141Z,17.63
2018-11-26T05:17:36.040Z,19.33
2018-11-26T05:20:05.741Z,18.47
2018-11-26T05:22:33.612Z,19.13
2018-11-26T05:25:01.513Z,18.77
2018-11-26T05:27:29.433Z,18.47
2018-11-26T05:29:57.341Z,18.37
2018-11-26T05:32:25.259Z,19.30
2018-11-26T05:34:53.137Z,19.23
2018-11-26T05:37:21.045Z,18.90
2018-11-26T05:39:48.920Z,19.50
2018-11-26T05:42:16.853Z,18.60
2018-11-26T05:44:44.732Z,19.07
2018-11-26T05:47:12.632Z,20.50
2018-11-26T05:49:40.537Z,19.90
2018-11-26T05:52:08.422Z,20.47
2018-11-26T05:54:36.370Z,21.47
2018-11-26T05:57:04.270Z,19.47
2018-11-26T05:59:32.186Z,20.63
2018-11-26T06:02:00.111Z,19.97
2018-11-26T06:04:27.984Z,18.97
2018-11-26T06:06:55.895Z,19.60
2018-11-26T06:09:23.813Z,19.53
2018-11-26T06:11:51.721Z,19.80
2018-11-26T06:14:19.644Z,18.77
2018-11-26T06:16:53.453Z,19.87
2018-11-26T06:19:15.449Z,18.60
2018-11-26T06:21:43.372Z,18.87
2018-11-26T06:24:11.314Z,20.37
2018-11-26T06:26:41.001Z,19.60
2018-11-26T06:29:08.905Z,19.93
2018-11-26T06:31:36.811Z,19.27
2018-11-26T06:34:04.860Z,19.77
2018-11-26T06:36:32.765Z,19.27
2018-11-26T06:39:00.684Z,19.37
2018-11-26T06:41:28.597Z,18.60
2018-11-26T06:43:56.523Z,18.80
2018-11-26T06:46:24.460Z,18.90
2018-11-26T06:48:52.348Z,19.23
2018-11-26T06:51:20.258Z,21.40
2018-11-26T06:53:48.150Z,29.23
2018-11-26T06:56:16.057Z,24.37
2018-11-26T06:58:43.965Z,20.43
2018-11-26T07:01:11.868Z,19.40
2018-11-26T07:03:48.514Z,19.57
2018-11-26T07:06:16.508Z,19.50
2018-11-26T07:08:44.425Z,19.00
2018-11-26T07:11:12.316Z,20.03
2018-11-26T07:13:40.208Z,19.90
2018-11-26T07:16:08.144Z,20.83
2018-11-26T07:18:36.169Z,20.47
2018-11-26T07:21:04.163Z,19.87
2018-11-26T07:23:32.080Z,19.80
2018-11-26T07:25:59.982Z,20.67
2018-11-26T07:28:27.929Z,19.90
2018-11-26T07:30:55.830Z,20.73
2018-11-26T07:33:23.728Z,20.50
2018-11-26T07:35:51.646Z,18.67
2018-11-26T07:38:19.550Z,20.73
2018-11-26T07:40:47.451Z,20.13
2018-11-26T07:43:15.425Z,19.90
2018-11-26T07:45:43.348Z,20.27
2018-11-26T07:48:11.999Z,19.53
2018-11-26T07:50:39.901Z,21.73
2018-11-26T07:53:09.067Z,18.33
2018-11-26T07:55:37.428Z,19.83
2018-11-26T07:58:05.364Z,19.50
2018-11-26T08:00:33.252Z,19.17
2018-11-26T08:03:01.145Z,18.27
2018-11-26T08:05:29.036Z,20.33
2018-11-26T08:07:56.944Z,22.00
2018-11-26T08:10:24.928Z,21.40
2018-11-26T08:12:53.968Z,19.53
2018-11-26T08:15:23.787Z,19.03
2018-11-26T08:17:51.713Z,18.10
2018-11-26T08:20:19.595Z,18.07
2018-11-26T08:22:47.615Z,17.37
2018-11-26T08:25:17.707Z,19.50
2018-11-26T08:27:46.620Z,18.43
2018-11-26T08:30:18.383Z,18.50
2018-11-26T08:32:47.560Z,18.07
2018-11-26T08:35:16.438Z,18.50
2018-11-26T08:38:52.634Z,17.73
2018-11-26T08:41:24.797Z,18.73
2018-11-26T08:43:57.731Z,19.77
2018-11-26T08:46:32.425Z,20.80
2018-11-26T08:49:02.235Z,19.47
2018-11-26T08:51:30.336Z,18.53
2018-11-26T08:53:58.264Z,20.27
2018-11-26T08:56:26.184Z,20.70
2018-11-26T08:58:54.073Z,18.17
2018-11-26T09:01:27.339Z,18.03
2018-11-26T09:03:56.118Z,17.03
2018-11-26T09:06:24.096Z,18.27
2018-11-26T09:08:52.021Z,16.47
2018-11-26T09:11:19.938Z,16.87
2018-11-26T09:13:47.832Z,17.17
2018-11-26T09:16:15.732Z,17.10
2018-11-26T09:18:43.641Z,17.47
2018-11-26T09:21:11.543Z,17.03
2018-11-26T09:23:39.436Z,17.17
2018-11-26T09:26:07.329Z,16.67
2018-11-26T09:28:35.224Z,16.83
2018-11-26T09:31:03.117Z,16.67
2018-11-26T09:33:31.049Z,15.67
2018-11-26T09:35:58.920Z,16.30
2018-11-26T09:38:26.884Z,15.80
2018-11-26T09:40:54.838Z,17.57
2018-11-26T09:43:22.752Z,15.10
2018-11-26T09:45:50.673Z,16.10
2018-11-26T09:48:18.580Z,16.03
2018-11-26T09:50:46.477Z,16.00
2018-11-26T09:53:14.393Z,15.90
2018-11-26T09:55:42.300Z,17.13
2018-11-26T09:58:10.209Z,16.60
2018-11-26T10:00:38.091Z,16.27
2018-11-26T10:03:06.008Z,16.17
2018-11-26T10:05:33.888Z,16.50
2018-11-26T10:08:01.803Z,17.07
2018-11-26T10:10:29.710Z,17.60
2018-11-26T10:12:57.609Z,18.07
2018-11-26T10:15:26.465Z,16.13
2018-11-26T10:17:54.371Z,15.63
2018-11-26T10:20:22.282Z,16.13
2018-11-26T10:22:51.332Z,15.93
2018-11-26T10:25:20.216Z,16.77
2018-11-26T10:27:48.139Z,16.47
2018-11-26T10:30:17.380Z,16.67
2018-11-26T10:32:45.815Z,16.37
2018-11-26T10:35:14.726Z,15.87
2018-11-26T10:37:42.617Z,15.93
2018-11-26T10:40:20.840Z,15.47
2018-11-26T10:42:48.757Z,16.10
2018-11-26T10:45:17.742Z,15.77
2018-11-26T10:47:45.665Z,15.40
2018-11-26T10:50:15.085Z,15.27
2018-11-26T10:52:43.925Z,15.43
2018-11-26T10:55:19.980Z,15.13
2018-11-26T10:57:47.868Z,15.13
2018-11-26T11:00:21.797Z,15.10
2018-11-26T11:02:50.047Z,15.70
2018-11-26T11:05:17.994Z,16.50
2018-11-26T11:07:45.940Z,15.80
2018-11-26T11:10:18.022Z,15.17
2018-11-26T11:12:45.928Z,15.83
2018-11-26T11:15:13.993Z,15.30
2018-11-26T11:17:41.945Z,15.93
2018-11-26T11:20:11.548Z,15.57
2018-11-26T11:22:39.460Z,15.47
2018-11-26T11:25:08.309Z,15.13
2018-11-26T11:27:36.224Z,15.43
2018-11-26T11:30:08.213Z,15.00
2018-11-26T11:32:36.133Z,15.30
2018-11-26T11:35:04.354Z,14.73
2018-11-26T11:37:32.422Z,15.40
2018-11-26T11:40:00.337Z,14.67
2018-11-26T11:42:28.225Z,14.80
2018-11-26T11:44:56.138Z,15.67
2018-11-26T11:47:24.038Z,15.77
2018-11-26T11:49:51.963Z,15.13
2018-11-26T11:52:19.862Z,15.87
2018-11-26T11:54:47.770Z,14.83
2018-11-26T11:57:15.678Z,14.80
2018-11-26T11:59:43.589Z,15.30
2018-11-26T12:02:15.984Z,15.87
2018-11-26T12:04:41.035Z,15.03
2018-11-26T12:07:08.952Z,16.03
2018-11-26T12:09:36.846Z,15.87
2018-11-26T12:12:04.745Z,15.20
2018-11-26T12:14:32.690Z,13.73
2018-11-26T12:17:00.630Z,14.60
2018-11-26T12:19:28.528Z,14.30
2018-11-26T12:21:56.466Z,14.50
2018-11-26T12:24:24.389Z,15.17
2018-11-26T12:26:52.286Z,14.67
2018-11-26T12:29:20.194Z,15.57
2018-11-26T12:31:48.089Z,14.87
2018-11-26T12:34:16.021Z,15.03
2018-11-26T12:36:43.942Z,14.10
2018-11-26T12:39:11.869Z,15.03
2018-11-26T12:41:39.769Z,14.87
2018-11-26T12:44:07.701Z,13.60
2018-11-26T12:46:35.615Z,13.67
2018-11-26T12:49:03.531Z,13.87
2018-11-26T12:51:31.808Z,13.67
2018-11-26T12:53:59.378Z,13.53
2018-11-26T12:56:27.334Z,15.87
2018-11-26T12:58:55.238Z,14.73
2018-11-26T13:01:23.145Z,15.37
2018-11-26T13:03:51.049Z,13.17
2018-11-26T13:06:18.966Z,13.67
2018-11-26T13:08:46.888Z,13.63
2018-11-26T13:11:14.808Z,13.37
2018-11-26T13:13:42.746Z,12.77
2018-11-26T13:16:10.652Z,13.00
2018-11-26T13:18:38.565Z,12.47
2018-11-26T13:21:06.514Z,12.93
2018-11-26T13:23:34.444Z,12.67
2018-11-26T13:26:02.391Z,12.87
2018-11-26T13:28:30.303Z,11.80
2018-11-26T13:30:58.201Z,12.57
2018-11-26T13:33:26.125Z,13.37
2018-11-26T13:35:54.021Z,12.93
2018-11-26T13:38:21.929Z,13.87
2018-11-26T13:40:49.845Z,13.93
2018-11-26T13:43:17.991Z,13.37
2018-11-26T13:45:48.031Z,14.17
2018-11-26T13:48:17.085Z,13.27
2018-11-26T13:50:49.898Z,14.17
2018-11-26T13:53:17.799Z,12.60
2018-11-26T13:55:45.743Z,14.00
2018-11-26T13:58:13.648Z,13.13
2018-11-26T14:00:41.609Z,13.33
2018-11-26T14:03:09.505Z,12.50
2018-11-26T14:05:37.433Z,14.20
2018-11-26T14:08:05.549Z,13.67
2018-11-26T14:10:33.510Z,13.60
2018-11-26T14:13:06.292Z,12.97
2018-11-26T14:15:34.222Z,13.23
2018-11-26T14:18:02.149Z,13.63
2018-11-26T14:20:30.075Z,13.97
2018-11-26T14:22:58.010Z,13.60
2018-11-26T14:25:25.931Z,13.60
2018-11-26T14:27:53.886Z,13.30
2018-11-26T14:30:25.500Z,13.83
2018-11-26T14:32:53.738Z,12.80
2018-11-26T14:35:21.767Z,14.17
2018-11-26T14:37:51.722Z,13.73
2018-11-26T14:40:23.257Z,13.63
2018-11-26T14:42:51.214Z,12.70
2018-11-26T14:45:19.109Z,13.80
2018-11-26T14:47:47.036Z,13.73
2018-11-26T14:50:16.065Z,13.97
2018-11-26T14:52:45.061Z,14.17
2018-11-26T14:55:17.331Z,13.63
2018-11-26T14:57:45.246Z,14.40
2018-11-26T15:00:15.471Z,14.00
2018-11-26T15:02:43.818Z,13.77
2018-11-26T15:05:11.657Z,13.53
2018-11-26T15:07:39.589Z,13.03
2018-11-26T15:10:09.865Z,13.67
2018-11-26T15:12:37.826Z,13.20
2018-11-26T15:15:08.634Z,13.87
2018-11-26T15:17:36.574Z,13.90
2018-11-26T15:20:07.375Z,14.30
2018-11-26T15:22:35.301Z,13.30
2018-11-26T15:25:03.195Z,14.33
2018-11-26T15:27:31.089Z,15.80
2018-11-26T15:29:59.019Z,13.87
2018-11-26T15:32:26.969Z,14.00
2018-11-26T15:34:54.886Z,15.33
2018-11-26T15:37:22.901Z,14.87
2018-11-26T15:39:50.850Z,14.03
2018-11-26T15:42:18.813Z,13.83
2018-11-26T15:44:46.709Z,13.60
2018-11-26T15:47:14.641Z,13.37
2018-11-26T15:49:42.577Z,13.60
2018-11-26T15:52:10.493Z,13.57
2018-11-26T15:54:38.417Z,14.37
2018-11-26T15:57:06.358Z,14.17
2018-11-26T15:59:34.261Z,12.97
2018-11-26T16:02:02.163Z,13.17
2018-11-26T16:04:30.082Z,13.07
2018-11-26T16:06:57.974Z,13.17
2018-11-26T16:09:25.890Z,13.57
2018-11-26T16:11:53.833Z,12.87
2018-11-26T16:14:21.753Z,13.37
2018-11-26T16:16:49.661Z,13.90
2018-11-26T16:19:17.621Z,14.30
2018-11-26T16:21:45.574Z,13.83
2018-11-26T16:24:13.518Z,13.70
2018-11-26T16:26:41.450Z,13.57
2018-11-26T16:29:09.422Z,13.87
2018-11-26T16:31:37.406Z,14.60
2018-11-26T16:34:05.974Z,14.33
2018-11-26T16:36:33.906Z,15.03
2018-11-26T16:39:01.908Z,14.83
2018-11-26T16:41:29.821Z,14.63
2018-11-26T16:43:57.742Z,14.33
2018-11-26T16:46:25.701Z,15.93
2018-11-26T16:48:53.625Z,14.33
2018-11-26T16:51:21.549Z,15.33
2018-11-26T16:53:49.477Z,15.57
2018-11-26T16:56:17.409Z,16.10
2018-11-26T16:58:45.343Z,15.23
2018-11-26T17:01:13.251Z,15.13
2018-11-26T17:03:41.169Z,16.13
2018-11-26T17:06:09.078Z,15.23
2018-11-26T17:08:37.020Z,15.97
2018-11-26T17:11:04.941Z,15.63
2018-11-26T17:13:32.863Z,14.83
2018-11-26T17:16:00.816Z,15.70
2018-11-26T17:18:28.743Z,15.57
2018-11-26T17:20:56.678Z,16.67
2018-11-26T17:23:24.675Z,15.23
2018-11-26T17:25:52.581Z,15.33
2018-11-26T17:28:20.517Z,15.97
2018-11-26T17:30:48.466Z,15.47
2018-11-26T17:33:16.405Z,15.53
2018-11-26T17:35:44.318Z,15.20
2018-11-26T17:38:12.272Z,15.00
2018-11-26T17:40:40.614Z,15.50
2018-11-26T17:43:10.191Z,15.13
2018-11-26T17:45:38.147Z,14.77
2018-11-26T17:48:06.575Z,14.70
2018-11-26T17:50:37.814Z,15.47
2018-11-26T17:53:11.545Z,15.00
2018-11-26T17:55:48.286Z,15.60
2018-11-26T17:58:16.572Z,14.03
2018-11-26T18:00:46.309Z,14.43
2018-11-26T18:03:18.115Z,14.70
2018-11-26T18:05:46.173Z,15.10
2018-11-26T18:08:15.729Z,15.63
2018-11-26T18:10:43.700Z,13.73
2018-11-26T18:13:11.618Z,15.13
2018-11-26T18:15:39.526Z,15.33
2018-11-26T18:18:10.665Z,15.07
2018-11-26T18:20:38.649Z,13.80
2018-11-26T18:23:07.621Z,13.73
2018-11-26T18:25:35.554Z,12.53
2018-11-26T18:28:05.408Z,13.77
2018-11-26T18:30:36.037Z,13.97
2018-11-26T18:33:03.958Z,14.90
2018-11-26T18:35:31.885Z,15.90
2018-11-26T18:37:59.806Z,15.53
2018-11-26T18:40:27.782Z,16.57
2018-11-26T18:42:55.700Z,16.60
2018-11-26T18:45:23.627Z,16.57
2018-11-26T18:47:51.559Z,18.50
2018-11-26T18:50:20.430Z,17.40
2018-11-26T18:52:49.317Z,19.10
2018-11-26T18:55:17.498Z,18.33
2018-11-26T18:57:45.439Z,18.37
2018-11-26T19:00:14.866Z,19.90
2018-11-26T19:02:42.843Z,18.27
2018-11-26T19:05:11.466Z,18.57
2018-11-26T19:07:39.379Z,19.80
2018-11-26T19:10:13.671Z,19.73
2018-11-26T19:12:42.322Z,20.30
2018-11-26T19:15:16.134Z,20.83
2018-11-26T19:17:44.101Z,20.27
2018-11-26T19:20:12.455Z,21.57
2018-11-26T19:22:40.875Z,20.73
2018-11-26T19:25:10.269Z,21.80
2018-11-26T19:27:38.207Z,21.40
2018-11-26T19:30:11.031Z,21.30
2018-11-26T19:32:39.281Z,22.50
2018-11-26T19:35:08.698Z,21.10
2018-11-26T19:37:36.611Z,22.97
2018-11-26T19:40:12.228Z,21.30
2018-11-26T19:42:40.505Z,21.80
2018-11-26T19:45:12.464Z,21.37
2018-11-26T19:47:40.394Z,24.17
2018-11-26T19:50:10.258Z,23.00
2018-11-26T19:52:38.173Z,22.43
2018-11-26T19:55:09.218Z,23.40
2018-11-26T19:57:37.145Z,23.13
2018-11-26T20:00:09.651Z,22.00
2018-11-26T20:02:37.562Z,23.67
2018-11-26T20:05:09.213Z,21.90
2018-11-26T20:07:37.145Z,22.13
2018-11-26T20:10:06.467Z,22.80
2018-11-26T20:12:34.397Z,22.13
2018-11-26T20:15:03.347Z,22.50
2018-11-26T20:17:31.370Z,24.20
2018-11-26T20:19:59.285Z,23.03
2018-11-26T20:22:27.266Z,23.83
2018-11-26T20:24:55.169Z,26.17
2018-11-26T20:27:23.069Z,23.77
2018-11-26T20:29:51.016Z,25.30
2018-11-26T20:32:18.941Z,25.57
2018-11-26T20:34:46.957Z,25.83
2018-11-26T20:37:14.873Z,24.70
2018-11-26T20:39:42.822Z,25.23
2018-11-26T20:42:10.789Z,25.67
2018-11-26T20:44:38.730Z,24.90
2018-11-26T20:47:07.306Z,26.00
2018-11-26T20:49:35.246Z,25.40
2018-11-26T20:52:03.190Z,24.17
2018-11-26T20:54:31.131Z,24.80
2018-11-26T20:56:59.078Z,25.43
2018-11-26T20:59:27.021Z,24.73
2018-11-26T21:01:54.974Z,25.27
2018-11-26T21:04:22.949Z,26.37
2018-11-26T21:06:50.882Z,24.67
2018-11-26T21:09:18.873Z,25.30
2018-11-26T21:11:46.829Z,26.97
2018-11-26T21:14:14.834Z,25.80
2018-11-26T21:16:42.761Z,25.33
2018-11-26T21:19:10.962Z,26.87
2018-11-26T21:21:38.918Z,25.20
2018-11-26T21:24:06.845Z,25.93
2018-11-26T21:26:34.859Z,24.90
2018-11-26T21:29:02.883Z,26.43
2018-11-26T21:31:30.854Z,25.40
2018-11-26T21:33:58.770Z,27.37
2018-11-26T21:36:26.678Z,25.03
2018-11-26T21:38:54.806Z,25.13
2018-11-26T21:41:23.418Z,27.73
2018-11-26T21:43:51.425Z,26.70
2018-11-26T21:46:19.365Z,26.73
2018-11-26T21:48:47.291Z,26.03
2018-11-26T21:51:15.222Z,26.70
2018-11-26T21:53:43.159Z,26.27
2018-11-26T21:56:11.078Z,26.63
2018-11-26T21:58:39.007Z,26.17
2018-11-26T22:01:08.677Z,25.73
2018-11-26T22:03:36.697Z,26.40
2018-11-26T22:06:05.166Z,26.13
2018-11-26T22:08:33.088Z,27.27
2018-11-26T22:11:01.191Z,26.93
2018-11-26T22:13:29.207Z,27.00
2018-11-26T22:15:57.113Z,26.13
2018-11-26T22:18:25.200Z,26.43
2018-11-26T22:20:53.109Z,26.70
2018-11-26T22:23:21.085Z,27.20
2018-11-26T22:25:48.980Z,27.27
2018-11-26T22:28:16.860Z,25.07
2018-11-26T22:30:44.763Z,27.77
2018-11-26T22:33:12.680Z,26.73
2018-11-26T22:35:40.680Z,27.43
2018-11-26T22:38:08.614Z,27.67
2018-11-26T22:40:36.576Z,26.20
2018-11-26T22:43:04.489Z,27.53
2018-11-26T22:45:33.441Z,26.30
2018-11-26T22:48:11.296Z,26.17
2018-11-26T22:50:41.200Z,25.70
2018-11-26T22:53:09.502Z,25.30
2018-11-26T22:55:37.450Z,26.40
2018-11-26T22:58:08.052Z,27.13
2018-11-26T23:00:41.046Z,25.50
2018-11-26T23:03:09.206Z,25.60
2018-11-26T23:05:37.105Z,25.57
2018-11-26T23:08:05.382Z,25.40
2018-11-26T23:10:33.303Z,24.40
2018-11-26T23:13:01.190Z,25.80
2018-11-26T23:15:29.111Z,25.10
2018-11-26T23:17:57.034Z,25.47
2018-11-26T23:20:24.940Z,25.63
2018-11-26T23:22:52.837Z,24.40
2018-11-26T23:25:21.078Z,25.33
2018-11-26T23:27:49.016Z,23.73
2018-11-26T23:30:25.111Z,24.07
2018-11-26T23:32:58.988Z,24.90
2018-11-26T23:35:26.924Z,22.43
2018-11-26T23:37:54.863Z,23.00
2018-11-26T23:40:22.764Z,20.00
2018-11-26T23:42:50.967Z,19.90
2018-11-26T23:45:19.917Z,18.90
2018-11-26T23:47:47.815Z,19.60
2018-11-26T23:50:16.568Z,18.43
2018-11-26T23:52:44.904Z,18.77
2018-11-26T23:55:14.057Z,17.70
2018-11-26T23:57:42.191Z,17.13
